sensor_id;sensor_type;location;lat;lon;timestamp;pressure;altitude;pressure_sealevel;temperature;humidity
25658;BME280;13517;59.320;18.042;2022-10-26T00:03:29;100070.06;;;9.78;100.00
25658;BME280;13517;59.320;18.042;2022-10-26T00:05:54;100065.47;;;9.67;100.00
25658;BME280;13517;59.320;18.042;2022-10-26T00:08:19;100065.06;;;9.60;100.00
25658;BME280;13517;59.320;18.042;2022-10-26T00:10:45;100089.53;;;9.70;100.00
25658;BME280;13517;59.320;18.042;2022-10-26T00:13:11;100086.53;;;9.62;100.00
25658;BME280;13517;59.320;18.042;2022-10-26T00:15:40;100088.66;;;9.70;100.00
25658;BME280;13517;59.320;18.042;2022-10-26T00:18:07;100103.13;;;9.68;100.00
25658;BME280;13517;59.320;18.042;2022-10-26T00:20:32;100087.50;;;9.61;100.00
25658;BME280;13517;59.320;18.042;2022-10-26T00:22:58;100083.69;;;9.63;100.00
25658;BME280;13517;59.320;18.042;2022-10-26T00:25:23;100063.53;;;9.56;100.00
25658;BME280;13517;59.320;18.042;2022-10-26T00:27:49;100087.50;;;9.61;100.00
25658;BME280;13517;59.320;18.042;2022-10-26T00:30:14;100110.03;;;9.73;100.00
25658;BME280;13517;59.320;18.042;2022-10-26T00:32:40;100082.31;;;9.58;100.00
25658;BME280;13517;59.320;18.042;2022-10-26T00:35:05;100093.72;;;9.61;100.00
25658;BME280;13517;59.320;18.042;2022-10-26T00:37:31;100074.97;;;9.47;100.00
25658;BME280;13517;59.320;18.042;2022-10-26T00:39:56;100111.09;;;9.70;100.00
25658;BME280;13517;59.320;18.042;2022-10-26T00:42:22;100098.38;;;9.59;100.00
25658;BME280;13517;59.320;18.042;2022-10-26T00:48:02;100114.22;;;9.64;100.00
25658;BME280;13517;59.320;18.042;2022-10-26T00:50:07;100114.75;;;9.56;100.00
25658;BME280;13517;59.320;18.042;2022-10-26T00:52:33;100100.75;;;9.51;100.00
25658;BME280;13517;59.320;18.042;2022-10-26T00:54:59;100113.69;;;9.59;100.00
25658;BME280;13517;59.320;18.042;2022-10-26T00:57:25;100098.69;;;9.42;100.00
25658;BME280;13517;59.320;18.042;2022-10-26T00:59:52;100081.78;;;9.26;100.00
25658;BME280;13517;59.320;18.042;2022-10-26T01:02:19;100090.50;;;9.30;100.00
25658;BME280;13517;59.320;18.042;2022-10-26T01:04:45;100103.00;;;9.31;100.00
25658;BME280;13517;59.320;18.042;2022-10-26T01:07:11;100126.63;;;9.40;100.00
25658;BME280;13517;59.320;18.042;2022-10-26T01:09:38;100111.63;;;9.23;100.00
25658;BME280;13517;59.320;18.042;2022-10-26T01:12:04;100128.34;;;9.29;100.00
25658;BME280;13517;59.320;18.042;2022-10-26T01:14:29;100124.25;;;9.23;100.00
25658;BME280;13517;59.320;18.042;2022-10-26T01:22:37;100146.00;;;9.20;100.00
25658;BME280;13517;59.320;18.042;2022-10-26T01:28:24;100144.69;;;9.12;100.00
25658;BME280;13517;59.320;18.042;2022-10-26T01:30:56;100137.03;;;9.06;100.00
25658;BME280;13517;59.320;18.042;2022-10-26T01:33:30;100145.13;;;9.06;100.00
25658;BME280;13517;59.320;18.042;2022-10-26T01:36:26;100148.13;;;9.02;100.00
25658;BME280;13517;59.320;18.042;2022-10-26T01:39:01;100154.56;;;8.99;100.00
25658;BME280;13517;59.320;18.042;2022-10-26T01:41:44;100151.13;;;8.97;100.00
25658;BME280;13517;59.320;18.042;2022-10-26T01:44:17;100110.00;;;8.67;100.00
25658;BME280;13517;59.320;18.042;2022-10-26T01:46:46;100140.44;;;8.82;100.00
25658;BME280;13517;59.320;18.042;2022-10-26T01:49:15;100154.16;;;8.92;100.00
25658;BME280;13517;59.320;18.042;2022-10-26T01:51:43;100122.19;;;8.73;100.00
25658;BME280;13517;59.320;18.042;2022-10-26T01:54:09;100154.31;;;8.89;100.00
25658;BME280;13517;59.320;18.042;2022-10-26T01:56:40;100136.63;;;8.72;100.00
25658;BME280;13517;59.320;18.042;2022-10-26T02:08:18;100170.47;;;8.76;100.00
25658;BME280;13517;59.320;18.042;2022-10-26T02:17:05;100153.38;;;8.63;100.00
25658;BME280;13517;59.320;18.042;2022-10-26T02:19:37;100179.28;;;8.78;100.00
25658;BME280;13517;59.320;18.042;2022-10-26T02:22:12;100187.00;;;8.70;100.00
25658;BME280;13517;59.320;18.042;2022-10-26T02:24:38;100179.06;;;8.68;100.00
25658;BME280;13517;59.320;18.042;2022-10-26T02:27:07;100151.97;;;8.57;100.00
25658;BME280;13517;59.320;18.042;2022-10-26T02:29:36;100167.72;;;8.63;100.00
25658;BME280;13517;59.320;18.042;2022-10-26T02:32:05;100149.59;;;8.52;100.00
25658;BME280;13517;59.320;18.042;2022-10-26T02:34:35;100179.16;;;8.67;100.00
25658;BME280;13517;59.320;18.042;2022-10-26T02:37:03;100167.16;;;8.58;100.00
25658;BME280;13517;59.320;18.042;2022-10-26T02:39:31;100145.53;;;8.45;100.00
25658;BME280;13517;59.320;18.042;2022-10-26T02:42:00;100186.56;;;8.63;100.00
25658;BME280;13517;59.320;18.042;2022-10-26T02:44:30;100151.97;;;8.42;100.00
25658;BME280;13517;59.320;18.042;2022-10-26T02:46:57;100193.75;;;8.63;100.00
25658;BME280;13517;59.320;18.042;2022-10-26T02:49:23;100180.91;;;8.53;100.00
25658;BME280;13517;59.320;18.042;2022-10-26T02:52:05;100210.88;;;8.62;100.00
25658;BME280;13517;59.320;18.042;2022-10-26T02:54:51;100215.53;;;8.60;100.00
25658;BME280;13517;59.320;18.042;2022-10-26T02:57:23;100205.91;;;8.55;100.00
25658;BME280;13517;59.320;18.042;2022-10-26T02:59:51;100218.41;;;8.56;100.00
25658;BME280;13517;59.320;18.042;2022-10-26T03:02:18;100189.56;;;8.44;100.00
25658;BME280;13517;59.320;18.042;2022-10-26T03:04:45;100196.38;;;8.50;100.00
25658;BME280;13517;59.320;18.042;2022-10-26T03:07:19;100211.28;;;8.55;100.00
25658;BME280;13517;59.320;18.042;2022-10-26T03:09:45;100212.03;;;8.57;100.00
25658;BME280;13517;59.320;18.042;2022-10-26T03:12:10;100190.03;;;8.36;100.00
25658;BME280;13517;59.320;18.042;2022-10-26T03:14:36;100176.31;;;8.26;100.00
25658;BME280;13517;59.320;18.042;2022-10-26T03:17:01;100203.03;;;8.44;100.00
25658;BME280;13517;59.320;18.042;2022-10-26T03:19:26;100190.66;;;8.27;100.00
25658;BME280;13517;59.320;18.042;2022-10-26T03:21:52;100175.06;;;8.17;100.00
25658;BME280;13517;59.320;18.042;2022-10-26T03:24:17;100175.19;;;8.16;100.00
25658;BME280;13517;59.320;18.042;2022-10-26T03:26:42;100228.00;;;8.46;100.00
25658;BME280;13517;59.320;18.042;2022-10-26T03:29:08;100228.41;;;8.40;100.00
25658;BME280;13517;59.320;18.042;2022-10-26T03:31:33;100190.53;;;8.14;100.00
25658;BME280;13517;59.320;18.042;2022-10-26T03:33:59;100229.38;;;8.39;100.00
25658;BME280;13517;59.320;18.042;2022-10-26T03:36:25;100234.53;;;8.27;100.00
25658;BME280;13517;59.320;18.042;2022-10-26T03:38:50;100226.09;;;8.19;100.00
25658;BME280;13517;59.320;18.042;2022-10-26T03:41:15;100192.19;;;8.02;100.00
25658;BME280;13517;59.320;18.042;2022-10-26T03:43:41;100164.63;;;7.84;100.00
25658;BME280;13517;59.320;18.042;2022-10-26T03:46:06;100267.34;;;8.34;100.00
25658;BME280;13517;59.320;18.042;2022-10-26T03:48:32;100177.09;;;7.85;100.00
25658;BME280;13517;59.320;18.042;2022-10-26T03:50:57;100266.28;;;8.37;100.00
25658;BME280;13517;59.320;18.042;2022-10-26T03:53:24;100251.47;;;8.29;100.00
25658;BME280;13517;59.320;18.042;2022-10-26T03:55:49;100196.59;;;7.88;100.00
25658;BME280;13517;59.320;18.042;2022-10-26T03:58:14;100262.34;;;8.28;100.00
25658;BME280;13517;59.320;18.042;2022-10-26T04:00:40;100244.34;;;8.14;100.00
25658;BME280;13517;59.320;18.042;2022-10-26T04:03:05;100252.16;;;8.18;100.00
25658;BME280;13517;59.320;18.042;2022-10-26T04:05:31;100245.97;;;8.16;100.00
25658;BME280;13517;59.320;18.042;2022-10-26T04:08:00;100280.78;;;8.34;100.00
25658;BME280;13517;59.320;18.042;2022-10-26T04:10:30;100265.13;;;8.26;100.00
25658;BME280;13517;59.320;18.042;2022-10-26T04:12:56;100270.50;;;8.26;100.00
25658;BME280;13517;59.320;18.042;2022-10-26T04:15:23;100265.69;;;8.17;100.00
25658;BME280;13517;59.320;18.042;2022-10-26T04:17:55;100278.19;;;8.18;100.00
25658;BME280;13517;59.320;18.042;2022-10-26T04:20:20;100255.69;;;8.04;100.00
25658;BME280;13517;59.320;18.042;2022-10-26T04:22:46;100281.63;;;8.20;100.00
25658;BME280;13517;59.320;18.042;2022-10-26T04:25:11;100271.47;;;8.11;100.00
25658;BME280;13517;59.320;18.042;2022-10-26T04:27:37;100295.69;;;8.25;100.00
25658;BME280;13517;59.320;18.042;2022-10-26T04:30:03;100290.19;;;8.12;100.00
25658;BME280;13517;59.320;18.042;2022-10-26T04:32:32;100294.31;;;8.18;100.00
25658;BME280;13517;59.320;18.042;2022-10-26T04:34:57;100268.38;;;8.02;100.00
25658;BME280;13517;59.320;18.042;2022-10-26T04:37:23;100264.91;;;8.00;100.00
25658;BME280;13517;59.320;18.042;2022-10-26T04:39:48;100297.78;;;8.20;100.00
25658;BME280;13517;59.320;18.042;2022-10-26T04:42:13;100297.47;;;8.10;100.00
25658;BME280;13517;59.320;18.042;2022-10-26T04:44:39;100261.81;;;7.92;100.00
25658;BME280;13517;59.320;18.042;2022-10-26T04:47:04;100313.94;;;8.20;100.00
25658;BME280;13517;59.320;18.042;2022-10-26T04:49:29;100301.13;;;8.09;100.00
25658;BME280;13517;59.320;18.042;2022-10-26T04:51:55;100268.44;;;7.86;100.00
25658;BME280;13517;59.320;18.042;2022-10-26T04:54:20;100307.19;;;8.13;100.00
25658;BME280;13517;59.320;18.042;2022-10-26T04:56:46;100314.41;;;8.12;100.00
25658;BME280;13517;59.320;18.042;2022-10-26T04:59:11;100275.91;;;7.81;100.00
25658;BME280;13517;59.320;18.042;2022-10-26T05:01:36;100324.06;;;8.00;100.00
25658;BME280;13517;59.320;18.042;2022-10-26T05:04:02;100341.69;;;8.06;100.00
25658;BME280;13517;59.320;18.042;2022-10-26T05:06:27;100326.19;;;7.95;100.00
25658;BME280;13517;59.320;18.042;2022-10-26T05:08:54;100339.28;;;8.01;100.00
25658;BME280;13517;59.320;18.042;2022-10-26T05:11:19;100318.78;;;7.84;100.00
25658;BME280;13517;59.320;18.042;2022-10-26T05:13:46;100292.78;;;7.69;100.00
25658;BME280;13517;59.320;18.042;2022-10-26T05:16:13;100347.53;;;7.98;100.00
25658;BME280;13517;59.320;18.042;2022-10-26T05:18:38;100362.63;;;8.01;100.00
25658;BME280;13517;59.320;18.042;2022-10-26T05:21:04;100354.22;;;7.91;100.00
25658;BME280;13517;59.320;18.042;2022-10-26T05:23:29;100333.34;;;7.80;100.00
25658;BME280;13517;59.320;18.042;2022-10-26T05:25:55;100292.84;;;7.53;100.00
25658;BME280;13517;59.320;18.042;2022-10-26T05:28:21;100369.22;;;7.95;100.00
25658;BME280;13517;59.320;18.042;2022-10-26T05:30:46;100375.75;;;7.91;100.00
25658;BME280;13517;59.320;18.042;2022-10-26T05:33:13;100357.47;;;7.82;100.00
25658;BME280;13517;59.320;18.042;2022-10-26T05:35:38;100356.09;;;7.74;100.00
25658;BME280;13517;59.320;18.042;2022-10-26T05:38:13;100356.38;;;7.70;100.00
25658;BME280;13517;59.320;18.042;2022-10-26T05:40:50;100337.59;;;7.54;100.00
25658;BME280;13517;59.320;18.042;2022-10-26T05:43:16;100366.34;;;7.68;100.00
25658;BME280;13517;59.320;18.042;2022-10-26T05:45:42;100375.63;;;7.78;100.00
25658;BME280;13517;59.320;18.042;2022-10-26T05:48:07;100376.03;;;7.70;100.00
25658;BME280;13517;59.320;18.042;2022-10-26T05:50:32;100403.09;;;7.83;100.00
25658;BME280;13517;59.320;18.042;2022-10-26T05:52:58;100396.06;;;7.81;100.00
25658;BME280;13517;59.320;18.042;2022-10-26T05:55:24;100372.94;;;7.62;100.00
25658;BME280;13517;59.320;18.042;2022-10-26T05:57:50;100359.16;;;7.52;100.00
25658;BME280;13517;59.320;18.042;2022-10-26T06:00:18;100395.81;;;7.69;100.00
25658;BME280;13517;59.320;18.042;2022-10-26T06:05:09;100416.97;;;7.75;100.00
25658;BME280;13517;59.320;18.042;2022-10-26T06:07:38;100376.19;;;7.53;100.00
25658;BME280;13517;59.320;18.042;2022-10-26T06:10:04;100400.53;;;7.66;100.00
25658;BME280;13517;59.320;18.042;2022-10-26T06:12:30;100422.16;;;7.79;100.00
25658;BME280;13517;59.320;18.042;2022-10-26T06:14:55;100420.72;;;7.73;100.00
25658;BME280;13517;59.320;18.042;2022-10-26T06:25:26;100441.19;;;7.75;100.00
25658;BME280;13517;59.320;18.042;2022-10-26T06:30:29;100448.22;;;7.62;100.00
25658;BME280;13517;59.320;18.042;2022-10-26T06:32:54;100440.50;;;7.56;100.00
25658;BME280;13517;59.320;18.042;2022-10-26T06:35:36;100457.59;;;7.71;100.00
25658;BME280;13517;59.320;18.042;2022-10-26T06:38:18;100428.22;;;7.52;100.00
25658;BME280;13517;59.320;18.042;2022-10-26T06:40:48;100465.47;;;7.74;100.00
25658;BME280;13517;59.320;18.042;2022-10-26T06:43:25;100445.78;;;7.57;100.00
25658;BME280;13517;59.320;18.042;2022-10-26T06:49:13;100475.44;;;7.72;100.00
25658;BME280;13517;59.320;18.042;2022-10-26T06:51:50;100467.38;;;7.72;100.00
25658;BME280;13517;59.320;18.042;2022-10-26T06:56:43;100486.13;;;7.73;100.00
25658;BME280;13517;59.320;18.042;2022-10-26T06:59:16;100472.00;;;7.70;100.00
25658;BME280;13517;59.320;18.042;2022-10-26T07:01:43;100465.72;;;7.69;100.00
25658;BME280;13517;59.320;18.042;2022-10-26T07:04:08;100457.94;;;7.65;100.00
25658;BME280;13517;59.320;18.042;2022-10-26T07:06:35;100447.19;;;7.48;100.00
25658;BME280;13517;59.320;18.042;2022-10-26T07:09:00;100424.28;;;7.41;100.00
25658;BME280;13517;59.320;18.042;2022-10-26T07:11:25;100502.50;;;7.85;100.00
25658;BME280;13517;59.320;18.042;2022-10-26T07:13:51;100507.72;;;7.88;100.00
25658;BME280;13517;59.320;18.042;2022-10-26T07:16:16;100460.88;;;7.60;100.00
25658;BME280;13517;59.320;18.042;2022-10-26T07:18:42;100504.06;;;7.89;100.00
25658;BME280;13517;59.320;18.042;2022-10-26T07:21:07;100457.50;;;7.56;100.00
25658;BME280;13517;59.320;18.042;2022-10-26T07:23:34;100501.13;;;7.77;100.00
25658;BME280;13517;59.320;18.042;2022-10-26T07:25:59;100492.53;;;7.71;100.00
25658;BME280;13517;59.320;18.042;2022-10-26T07:28:25;100474.06;;;7.65;100.00
25658;BME280;13517;59.320;18.042;2022-10-26T07:30:50;100511.59;;;7.82;100.00
25658;BME280;13517;59.320;18.042;2022-10-26T07:33:16;100511.72;;;7.81;100.00
25658;BME280;13517;59.320;18.042;2022-10-26T07:35:41;100489.84;;;7.71;100.00
25658;BME280;13517;59.320;18.042;2022-10-26T07:38:11;100540.22;;;7.99;100.00
25658;BME280;13517;59.320;18.042;2022-10-26T07:40:36;100515.53;;;7.93;100.00
25658;BME280;13517;59.320;18.042;2022-10-26T07:43:02;100548.56;;;8.11;100.00
25658;BME280;13517;59.320;18.042;2022-10-26T07:45:28;100541.25;;;8.13;100.00
25658;BME280;13517;59.320;18.042;2022-10-26T07:47:54;100551.69;;;8.19;100.00
25658;BME280;13517;59.320;18.042;2022-10-26T07:50:20;100520.19;;;8.05;100.00
25658;BME280;13517;59.320;18.042;2022-10-26T07:52:45;100497.66;;;7.92;100.00
25658;BME280;13517;59.320;18.042;2022-10-26T07:55:11;100537.63;;;8.14;100.00
25658;BME280;13517;59.320;18.042;2022-10-26T07:57:37;100518.56;;;8.02;100.00
25658;BME280;13517;59.320;18.042;2022-10-26T08:00:05;100554.38;;;8.19;100.00
25658;BME280;13517;59.320;18.042;2022-10-26T08:02:31;100554.78;;;8.27;100.00
25658;BME280;13517;59.320;18.042;2022-10-26T08:04:56;100565.66;;;8.26;100.00
25658;BME280;13517;59.320;18.042;2022-10-26T08:07:22;100524.09;;;7.99;100.00
25658;BME280;13517;59.320;18.042;2022-10-26T08:09:47;100559.06;;;8.15;100.00
25658;BME280;13517;59.320;18.042;2022-10-26T08:12:13;100546.50;;;8.00;100.00
25658;BME280;13517;59.320;18.042;2022-10-26T08:14:41;100547.25;;;8.02;100.00
25658;BME280;13517;59.320;18.042;2022-10-26T08:17:06;100571.75;;;8.13;100.00
25658;BME280;13517;59.320;18.042;2022-10-26T08:19:32;100546.50;;;8.00;100.00
25658;BME280;13517;59.320;18.042;2022-10-26T08:21:57;100534.50;;;8.06;100.00
25658;BME280;13517;59.320;18.042;2022-10-26T08:24:23;100562.59;;;8.32;100.00
25658;BME280;13517;59.320;18.042;2022-10-26T08:26:48;100582.19;;;8.50;100.00
25658;BME280;13517;59.320;18.042;2022-10-26T08:29:14;100577.94;;;8.46;100.00
25658;BME280;13517;59.320;18.042;2022-10-26T08:31:39;100589.97;;;8.40;100.00
25658;BME280;13517;59.320;18.042;2022-10-26T08:34:04;100553.00;;;8.12;100.00
25658;BME280;13517;59.320;18.042;2022-10-26T08:36:31;100590.81;;;8.25;100.00
25658;BME280;13517;59.320;18.042;2022-10-26T08:38:56;100571.41;;;8.03;100.00
25658;BME280;13517;59.320;18.042;2022-10-26T08:41:41;100593.00;;;8.02;100.00
25658;BME280;13517;59.320;18.042;2022-10-26T08:46:41;100611.16;;;8.14;100.00
25658;BME280;13517;59.320;18.042;2022-10-26T08:49:25;100615.97;;;8.08;100.00
25658;BME280;13517;59.320;18.042;2022-10-26T08:51:57;100622.31;;;8.07;100.00
25658;BME280;13517;59.320;18.042;2022-10-26T08:54:35;100628.84;;;8.02;100.00
25658;BME280;13517;59.320;18.042;2022-10-26T08:57:09;100630.66;;;8.02;100.00
25658;BME280;13517;59.320;18.042;2022-10-26T08:59:46;100624.31;;;8.03;100.00
25658;BME280;13517;59.320;18.042;2022-10-26T09:02:15;100602.81;;;7.87;100.00
25658;BME280;13517;59.320;18.042;2022-10-26T09:04:41;100620.50;;;8.07;100.00
25658;BME280;13517;59.320;18.042;2022-10-26T09:12:57;100641.44;;;8.18;100.00
25658;BME280;13517;59.320;18.042;2022-10-26T09:24:11;100659.59;;;8.30;100.00
25658;BME280;13517;59.320;18.042;2022-10-26T09:29:24;100654.97;;;8.32;100.00
25658;BME280;13517;59.320;18.042;2022-10-26T09:31:53;100654.47;;;8.26;100.00
25658;BME280;13517;59.320;18.042;2022-10-26T09:34:30;100645.88;;;8.19;100.00
25658;BME280;13517;59.320;18.042;2022-10-26T09:36:57;100655.41;;;8.41;100.00
25658;BME280;13517;59.320;18.042;2022-10-26T09:39:45;100646.56;;;8.39;100.00
25658;BME280;13517;59.320;18.042;2022-10-26T09:42:23;100645.00;;;8.35;100.00
25658;BME280;13517;59.320;18.042;2022-10-26T09:44:57;100648.28;;;8.40;100.00
25658;BME280;13517;59.320;18.042;2022-10-26T09:47:33;100664.75;;;8.51;100.00
25658;BME280;13517;59.320;18.042;2022-10-26T09:52:39;100652.03;;;8.37;100.00
25658;BME280;13517;59.320;18.042;2022-10-26T09:55:04;100669.28;;;8.49;100.00
25658;BME280;13517;59.320;18.042;2022-10-26T09:57:30;100667.56;;;8.48;100.00
25658;BME280;13517;59.320;18.042;2022-10-26T09:59:56;100685.31;;;8.52;100.00
25658;BME280;13517;59.320;18.042;2022-10-26T10:02:39;100678.78;;;8.40;100.00
25658;BME280;13517;59.320;18.042;2022-10-26T10:11:15;100698.66;;;8.38;100.00
25658;BME280;13517;59.320;18.042;2022-10-26T10:13:42;100673.81;;;8.32;100.00
25658;BME280;13517;59.320;18.042;2022-10-26T10:18:55;100676.38;;;8.52;100.00
25658;BME280;13517;59.320;18.042;2022-10-26T10:21:39;100692.78;;;8.63;100.00
25658;BME280;13517;59.320;18.042;2022-10-26T10:24:29;100695.75;;;8.58;100.00
25658;BME280;13517;59.320;18.042;2022-10-26T10:29:45;100679.22;;;8.49;100.00
25658;BME280;13517;59.320;18.042;2022-10-26T10:32:19;100694.88;;;8.58;100.00
25658;BME280;13517;59.320;18.042;2022-10-26T10:34:46;100689.81;;;8.52;100.00
25658;BME280;13517;59.320;18.042;2022-10-26T10:37:39;100703.91;;;8.57;100.00
25658;BME280;13517;59.320;18.042;2022-10-26T10:40:15;100707.72;;;8.53;100.00
25658;BME280;13517;59.320;18.042;2022-10-26T10:42:42;100700.63;;;8.50;100.00
25658;BME280;13517;59.320;18.042;2022-10-26T10:45:22;100719.44;;;8.52;100.00
25658;BME280;13517;59.320;18.042;2022-10-26T10:48:18;100727.75;;;8.47;100.00
25658;BME280;13517;59.320;18.042;2022-10-26T10:51:05;100728.34;;;8.36;100.00
25658;BME280;13517;59.320;18.042;2022-10-26T10:53:53;100740.34;;;8.47;100.00
25658;BME280;13517;59.320;18.042;2022-10-26T10:56:51;100740.34;;;8.47;100.00
25658;BME280;13517;59.320;18.042;2022-10-26T11:07:14;100751.97;;;8.65;100.00
25658;BME280;13517;59.320;18.042;2022-10-26T11:09:44;100742.81;;;8.67;100.00
25658;BME280;13517;59.320;18.042;2022-10-26T11:12:18;100754.38;;;8.69;100.00
25658;BME280;13517;59.320;18.042;2022-10-26T11:15:13;100748.47;;;8.63;100.00
25658;BME280;13517;59.320;18.042;2022-10-26T11:20:25;100761.16;;;8.61;100.00
25658;BME280;13517;59.320;18.042;2022-10-26T11:23:07;100750.94;;;8.50;100.00
25658;BME280;13517;59.320;18.042;2022-10-26T11:25:46;100765.91;;;8.55;100.00
25658;BME280;13517;59.320;18.042;2022-10-26T11:28:18;100771.47;;;8.52;100.00
25658;BME280;13517;59.320;18.042;2022-10-26T11:30:52;100764.66;;;8.45;100.00
25658;BME280;13517;59.320;18.042;2022-10-26T11:33:31;100775.25;;;8.48;100.00
25658;BME280;13517;59.320;18.042;2022-10-26T11:36:07;100757.00;;;8.37;100.00
25658;BME280;13517;59.320;18.042;2022-10-26T11:38:39;100759.63;;;8.39;100.00
25658;BME280;13517;59.320;18.042;2022-10-26T11:43:46;100773.47;;;8.31;100.00
25658;BME280;13517;59.320;18.042;2022-10-26T11:46:22;100795.06;;;8.47;100.00
25658;BME280;13517;59.320;18.042;2022-10-26T11:52:01;100800.97;;;8.38;100.00
25658;BME280;13517;59.320;18.042;2022-10-26T11:54:34;100785.31;;;8.44;100.00
25658;BME280;13517;59.320;18.042;2022-10-26T11:57:03;100789.31;;;8.37;100.00
25658;BME280;13517;59.320;18.042;2022-10-26T11:59:31;100797.38;;;8.37;100.00
25658;BME280;13517;59.320;18.042;2022-10-26T12:02:04;100810.31;;;8.47;100.00
25658;BME280;13517;59.320;18.042;2022-10-26T12:04:33;100806.88;;;8.44;100.00
25658;BME280;13517;59.320;18.042;2022-10-26T12:07:02;100807.44;;;8.51;100.00
25658;BME280;13517;59.320;18.042;2022-10-26T12:09:33;100814.56;;;8.52;100.00
25658;BME280;13517;59.320;18.042;2022-10-26T12:12:10;100787.56;;;8.36;100.00
25658;BME280;13517;59.320;18.042;2022-10-26T12:14:45;100810.84;;;8.55;100.00
25658;BME280;13517;59.320;18.042;2022-10-26T12:17:19;100819.94;;;8.52;100.00
25658;BME280;13517;59.320;18.042;2022-10-26T12:19:54;100811.91;;;8.51;100.00
25658;BME280;13517;59.320;18.042;2022-10-26T12:22:31;100816.66;;;8.45;100.00
25658;BME280;13517;59.320;18.042;2022-10-26T12:25:09;100817.25;;;8.52;100.00
25658;BME280;13517;59.320;18.042;2022-10-26T12:37:56;100803.31;;;8.44;100.00
25658;BME280;13517;59.320;18.042;2022-10-26T12:43:29;100810.44;;;8.45;100.00
25658;BME280;13517;59.320;18.042;2022-10-26T12:45:46;100800.00;;;8.39;100.00
25658;BME280;13517;59.320;18.042;2022-10-26T12:48:41;100815.34;;;8.54;100.00
25658;BME280;13517;59.320;18.042;2022-10-26T12:56:32;100836.28;;;8.65;100.00
25658;BME280;13517;59.320;18.042;2022-10-26T12:59:18;100835.19;;;8.69;100.00
25658;BME280;13517;59.320;18.042;2022-10-26T13:01:56;100834.91;;;8.74;100.00
25658;BME280;13517;59.320;18.042;2022-10-26T13:07:23;100839.28;;;8.77;100.00
25658;BME280;13517;59.320;18.042;2022-10-26T13:10:21;100842.03;;;8.75;100.00
25658;BME280;13517;59.320;18.042;2022-10-26T13:12:57;100837.00;;;8.69;100.00
25658;BME280;13517;59.320;18.042;2022-10-26T13:15:27;100844.13;;;8.70;100.00
25658;BME280;13517;59.320;18.042;2022-10-26T13:20:21;100859.03;;;8.60;100.00
25658;BME280;13517;59.320;18.042;2022-10-26T13:22:47;100850.16;;;8.57;100.00
25658;BME280;13517;59.320;18.042;2022-10-26T13:25:24;100831.53;;;8.37;100.00
25658;BME280;13517;59.320;18.042;2022-10-26T13:28:05;100855.91;;;8.51;100.00
25658;BME280;13517;59.320;18.042;2022-10-26T13:30:46;100863.16;;;8.49;100.00
25658;BME280;13517;59.320;18.042;2022-10-26T13:33:24;100861.84;;;8.40;100.00
25658;BME280;13517;59.320;18.042;2022-10-26T13:35:54;100862.69;;;8.41;100.00
25658;BME280;13517;59.320;18.042;2022-10-26T13:38:22;100853.63;;;8.26;100.00
25658;BME280;13517;59.320;18.042;2022-10-26T13:40:48;100859.88;;;8.26;100.00
25658;BME280;13517;59.320;18.042;2022-10-26T13:43:19;100874.22;;;8.27;100.00
25658;BME280;13517;59.320;18.042;2022-10-26T13:45:54;100870.88;;;8.22;100.00
25658;BME280;13517;59.320;18.042;2022-10-26T13:48:30;100878.00;;;8.23;100.00
25658;BME280;13517;59.320;18.042;2022-10-26T13:51:10;100858.63;;;8.16;100.00
25658;BME280;13517;59.320;18.042;2022-10-26T13:53:42;100864.47;;;8.24;100.00
25658;BME280;13517;59.320;18.042;2022-10-26T13:59:13;100866.28;;;8.24;100.00
25658;BME280;13517;59.320;18.042;2022-10-26T14:01:39;100862.25;;;8.15;100.00
25658;BME280;13517;59.320;18.042;2022-10-26T14:06:47;100865.28;;;8.09;100.00
25658;BME280;13517;59.320;18.042;2022-10-26T14:09:15;100886.63;;;8.12;100.00
25658;BME280;13517;59.320;18.042;2022-10-26T14:11:57;100883.88;;;8.13;100.00
25658;BME280;13517;59.320;18.042;2022-10-26T14:14:29;100871.94;;;8.01;100.00
25658;BME280;13517;59.320;18.042;2022-10-26T14:16:56;100879.06;;;8.02;100.00
25658;BME280;13517;59.320;18.042;2022-10-26T14:19:35;100858.53;;;7.82;100.00
25658;BME280;13517;59.320;18.042;2022-10-26T14:22:02;100883.63;;;8.00;100.00
25658;BME280;13517;59.320;18.042;2022-10-26T14:24:29;100900.09;;;8.12;100.00
25658;BME280;13517;59.320;18.042;2022-10-26T14:26:55;100893.28;;;8.04;100.00
25658;BME280;13517;59.320;18.042;2022-10-26T14:29:22;100909.91;;;8.13;100.00
25658;BME280;13517;59.320;18.042;2022-10-26T14:31:49;100904.50;;;8.13;100.00
25658;BME280;13517;59.320;18.042;2022-10-26T14:34:15;100883.63;;;8.00;100.00
25658;BME280;13517;59.320;18.042;2022-10-26T14:36:49;100901.66;;;7.98;100.00
25658;BME280;13517;59.320;18.042;2022-10-26T14:39:40;100905.94;;;8.02;100.00
25658;BME280;13517;59.320;18.042;2022-10-26T14:44:42;100932.75;;;8.04;100.00
25658;BME280;13517;59.320;18.042;2022-10-26T14:47:13;100897.78;;;7.86;100.00
25658;BME280;13517;59.320;18.042;2022-10-26T14:49:44;100908.38;;;7.89;100.00
25658;BME280;13517;59.320;18.042;2022-10-26T14:52:19;100916.25;;;7.94;100.00
25658;BME280;13517;59.320;18.042;2022-10-26T14:55:03;100909.25;;;7.90;100.00
25658;BME280;13517;59.320;18.042;2022-10-26T14:57:36;100928.56;;;7.98;100.00
25658;BME280;13517;59.320;18.042;2022-10-26T15:00:23;100936.00;;;7.93;100.00
25658;BME280;13517;59.320;18.042;2022-10-26T15:02:51;100929.69;;;7.94;100.00
25658;BME280;13517;59.320;18.042;2022-10-26T15:07:49;100926.13;;;7.94;100.00